sensor_id;sensor_type;location;lat;lon;timestamp;P1;durP1;ratioP1;P2;durP2;ratioP2
69046;SDS011;57261;47.504;19.084;2022-11-27T00:00:30;59.25;;;35.40;;
69046;SDS011;57261;47.504;19.084;2022-11-27T00:03:31;62.80;;;38.47;;
69046;SDS011;57261;47.504;19.084;2022-11-27T00:06:31;57.80;;;36.37;;
69046;SDS011;57261;47.504;19.084;2022-11-27T00:09:32;60.95;;;37.25;;
69046;SDS011;57261;47.504;19.084;2022-11-27T00:12:33;62.40;;;37.33;;
69046;SDS011;57261;47.504;19.084;2022-11-27T00:15:34;57.43;;;36.70;;
69046;SDS011;57261;47.504;19.084;2022-11-27T00:18:34;56.28;;;36.30;;
69046;SDS011;57261;47.504;19.084;2022-11-27T00:21:35;62.10;;;37.33;;
69046;SDS011;57261;47.504;19.084;2022-11-27T00:24:36;60.92;;;36.47;;
69046;SDS011;57261;47.504;19.084;2022-11-27T00:27:37;58.47;;;37.23;;
69046;SDS011;57261;47.504;19.084;2022-11-27T00:30:38;58.50;;;36.00;;
69046;SDS011;57261;47.504;19.084;2022-11-27T00:33:38;58.13;;;36.73;;
69046;SDS011;57261;47.504;19.084;2022-11-27T00:36:39;59.72;;;38.28;;
69046;SDS011;57261;47.504;19.084;2022-11-27T00:39:39;60.80;;;37.80;;
69046;SDS011;57261;47.504;19.084;2022-11-27T00:42:40;63.23;;;37.87;;
69046;SDS011;57261;47.504;19.084;2022-11-27T00:45:40;58.97;;;37.30;;
69046;SDS011;57261;47.504;19.084;2022-11-27T00:48:40;61.83;;;37.87;;
69046;SDS011;57261;47.504;19.084;2022-11-27T00:51:41;63.63;;;38.08;;
69046;SDS011;57261;47.504;19.084;2022-11-27T00:54:41;57.93;;;35.97;;
69046;SDS011;57261;47.504;19.084;2022-11-27T00:57:42;56.33;;;36.57;;
69046;SDS011;57261;47.504;19.084;2022-11-27T01:00:44;58.57;;;37.50;;
69046;SDS011;57261;47.504;19.084;2022-11-27T01:03:44;58.90;;;36.45;;
69046;SDS011;57261;47.504;19.084;2022-11-27T01:06:45;59.78;;;38.17;;
69046;SDS011;57261;47.504;19.084;2022-11-27T01:09:46;58.55;;;35.88;;
69046;SDS011;57261;47.504;19.084;2022-11-27T01:12:47;56.93;;;37.07;;
69046;SDS011;57261;47.504;19.084;2022-11-27T01:16:03;54.85;;;36.35;;
69046;SDS011;57261;47.504;19.084;2022-11-27T01:19:14;57.58;;;36.13;;
69046;SDS011;57261;47.504;19.084;2022-11-27T01:22:15;56.78;;;36.75;;
69046;SDS011;57261;47.504;19.084;2022-11-27T01:25:15;54.90;;;35.70;;
69046;SDS011;57261;47.504;19.084;2022-11-27T01:28:15;57.57;;;34.27;;
69046;SDS011;57261;47.504;19.084;2022-11-27T01:31:17;56.87;;;35.00;;
69046;SDS011;57261;47.504;19.084;2022-11-27T01:34:19;51.30;;;32.53;;
69046;SDS011;57261;47.504;19.084;2022-11-27T01:37:20;50.83;;;32.40;;
69046;SDS011;57261;47.504;19.084;2022-11-27T01:40:20;56.20;;;33.97;;
69046;SDS011;57261;47.504;19.084;2022-11-27T01:43:44;54.03;;;34.10;;
69046;SDS011;57261;47.504;19.084;2022-11-27T01:46:47;52.40;;;33.65;;
69046;SDS011;57261;47.504;19.084;2022-11-27T01:49:52;53.10;;;32.70;;
69046;SDS011;57261;47.504;19.084;2022-11-27T01:52:58;53.17;;;33.03;;
69046;SDS011;57261;47.504;19.084;2022-11-27T01:56:04;50.60;;;33.70;;
69046;SDS011;57261;47.504;19.084;2022-11-27T01:59:04;51.57;;;33.70;;
69046;SDS011;57261;47.504;19.084;2022-11-27T02:02:05;51.83;;;34.50;;
69046;SDS011;57261;47.504;19.084;2022-11-27T02:05:06;51.17;;;32.85;;
69046;SDS011;57261;47.504;19.084;2022-11-27T02:08:11;50.97;;;33.50;;
69046;SDS011;57261;47.504;19.084;2022-11-27T02:30:35;49.23;;;30.27;;
69046;SDS011;57261;47.504;19.084;2022-11-27T02:33:43;48.72;;;30.92;;
69046;SDS011;57261;47.504;19.084;2022-11-27T02:36:52;49.05;;;30.33;;
69046;SDS011;57261;47.504;19.084;2022-11-27T02:40:17;48.90;;;31.33;;
69046;SDS011;57261;47.504;19.084;2022-11-27T02:43:28;44.75;;;28.20;;
69046;SDS011;57261;47.504;19.084;2022-11-27T02:46:32;48.60;;;30.33;;
69046;SDS011;57261;47.504;19.084;2022-11-27T02:49:33;47.97;;;31.23;;
69046;SDS011;57261;47.504;19.084;2022-11-27T02:52:35;49.80;;;30.98;;
69046;SDS011;57261;47.504;19.084;2022-11-27T02:55:37;51.88;;;32.95;;
69046;SDS011;57261;47.504;19.084;2022-11-27T02:58:39;47.65;;;30.23;;
69046;SDS011;57261;47.504;19.084;2022-11-27T03:01:42;47.63;;;30.48;;
69046;SDS011;57261;47.504;19.084;2022-11-27T03:04:46;47.03;;;29.17;;
69046;SDS011;57261;47.504;19.084;2022-11-27T03:11:05;47.33;;;30.87;;
69046;SDS011;57261;47.504;19.084;2022-11-27T03:14:08;47.15;;;30.35;;
69046;SDS011;57261;47.504;19.084;2022-11-27T03:20:38;48.83;;;30.67;;
69046;SDS011;57261;47.504;19.084;2022-11-27T03:23:42;43.03;;;28.35;;
69046;SDS011;57261;47.504;19.084;2022-11-27T03:26:42;45.23;;;28.93;;
69046;SDS011;57261;47.504;19.084;2022-11-27T03:29:50;44.75;;;28.35;;
69046;SDS011;57261;47.504;19.084;2022-11-27T03:32:55;42.03;;;26.83;;
69046;SDS011;57261;47.504;19.084;2022-11-27T03:35:56;44.20;;;29.02;;
69046;SDS011;57261;47.504;19.084;2022-11-27T03:38:56;43.87;;;27.50;;
69046;SDS011;57261;47.504;19.084;2022-11-27T03:45:07;40.60;;;26.02;;
69046;SDS011;57261;47.504;19.084;2022-11-27T03:48:17;43.75;;;26.92;;
69046;SDS011;57261;47.504;19.084;2022-11-27T03:58:05;42.17;;;26.70;;
69046;SDS011;57261;47.504;19.084;2022-11-27T04:01:11;44.47;;;27.33;;
69046;SDS011;57261;47.504;19.084;2022-11-27T04:04:15;40.35;;;25.50;;
69046;SDS011;57261;47.504;19.084;2022-11-27T04:07:15;41.53;;;25.43;;
69046;SDS011;57261;47.504;19.084;2022-11-27T04:10:16;39.30;;;25.40;;
69046;SDS011;57261;47.504;19.084;2022-11-27T04:13:18;42.70;;;26.00;;
69046;SDS011;57261;47.504;19.084;2022-11-27T04:16:18;42.13;;;25.95;;
69046;SDS011;57261;47.504;19.084;2022-11-27T04:19:19;39.87;;;25.70;;
69046;SDS011;57261;47.504;19.084;2022-11-27T04:22:19;40.60;;;25.97;;
69046;SDS011;57261;47.504;19.084;2022-11-27T04:25:20;39.78;;;25.70;;
69046;SDS011;57261;47.504;19.084;2022-11-27T04:28:24;38.95;;;25.23;;
69046;SDS011;57261;47.504;19.084;2022-11-27T04:31:24;37.93;;;25.80;;
69046;SDS011;57261;47.504;19.084;2022-11-27T04:34:24;38.45;;;24.67;;
69046;SDS011;57261;47.504;19.084;2022-11-27T04:37:25;38.88;;;25.08;;
69046;SDS011;57261;47.504;19.084;2022-11-27T04:40:25;37.70;;;24.70;;
69046;SDS011;57261;47.504;19.084;2022-11-27T04:43:30;38.67;;;24.80;;
69046;SDS011;57261;47.504;19.084;2022-11-27T04:46:30;38.03;;;23.42;;
69046;SDS011;57261;47.504;19.084;2022-11-27T04:49:30;40.17;;;24.83;;
69046;SDS011;57261;47.504;19.084;2022-11-27T04:52:31;39.70;;;24.87;;
69046;SDS011;57261;47.504;19.084;2022-11-27T04:55:31;40.57;;;25.97;;
69046;SDS011;57261;47.504;19.084;2022-11-27T04:58:35;39.47;;;25.52;;
69046;SDS011;57261;47.504;19.084;2022-11-27T05:01:35;38.05;;;24.30;;
69046;SDS011;57261;47.504;19.084;2022-11-27T05:04:36;39.13;;;25.27;;
69046;SDS011;57261;47.504;19.084;2022-11-27T05:07:36;38.17;;;25.07;;
69046;SDS011;57261;47.504;19.084;2022-11-27T05:10:36;39.13;;;25.53;;
69046;SDS011;57261;47.504;19.084;2022-11-27T05:13:37;37.37;;;25.17;;
69046;SDS011;57261;47.504;19.084;2022-11-27T05:16:38;38.55;;;24.88;;
69046;SDS011;57261;47.504;19.084;2022-11-27T05:19:38;40.23;;;25.47;;
69046;SDS011;57261;47.504;19.084;2022-11-27T05:22:38;39.60;;;25.30;;
69046;SDS011;57261;47.504;19.084;2022-11-27T05:25:39;41.13;;;25.83;;
69046;SDS011;57261;47.504;19.084;2022-11-27T05:28:39;40.72;;;25.38;;
69046;SDS011;57261;47.504;19.084;2022-11-27T05:31:40;41.33;;;26.60;;
69046;SDS011;57261;47.504;19.084;2022-11-27T05:34:41;39.87;;;25.47;;
69046;SDS011;57261;47.504;19.084;2022-11-27T05:37:41;42.47;;;26.70;;
69046;SDS011;57261;47.504;19.084;2022-11-27T05:40:42;44.10;;;26.33;;
69046;SDS011;57261;47.504;19.084;2022-11-27T05:43:42;41.77;;;26.23;;
69046;SDS011;57261;47.504;19.084;2022-11-27T05:46:42;42.77;;;26.67;;
69046;SDS011;57261;47.504;19.084;2022-11-27T05:49:43;44.10;;;26.35;;
69046;SDS011;57261;47.504;19.084;2022-11-27T05:52:48;45.47;;;27.13;;
69046;SDS011;57261;47.504;19.084;2022-11-27T05:55:49;40.15;;;26.35;;
69046;SDS011;57261;47.504;19.084;2022-11-27T05:58:49;43.53;;;27.27;;
69046;SDS011;57261;47.504;19.084;2022-11-27T06:01:51;44.92;;;28.20;;
69046;SDS011;57261;47.504;19.084;2022-11-27T06:04:51;46.30;;;28.23;;
69046;SDS011;57261;47.504;19.084;2022-11-27T06:07:52;48.07;;;28.57;;
69046;SDS011;57261;47.504;19.084;2022-11-27T06:10:52;47.53;;;30.10;;
69046;SDS011;57261;47.504;19.084;2022-11-27T06:13:52;45.57;;;27.73;;
69046;SDS011;57261;47.504;19.084;2022-11-27T06:16:53;49.80;;;29.17;;
69046;SDS011;57261;47.504;19.084;2022-11-27T06:19:53;48.73;;;29.37;;
69046;SDS011;57261;47.504;19.084;2022-11-27T06:22:54;46.90;;;28.58;;
69046;SDS011;57261;47.504;19.084;2022-11-27T06:25:55;49.15;;;29.92;;
69046;SDS011;57261;47.504;19.084;2022-11-27T06:28:56;47.67;;;29.13;;
69046;SDS011;57261;47.504;19.084;2022-11-27T06:31:58;51.10;;;30.45;;
69046;SDS011;57261;47.504;19.084;2022-11-27T06:34:58;51.93;;;30.33;;
69046;SDS011;57261;47.504;19.084;2022-11-27T06:37:59;52.83;;;30.08;;
69046;SDS011;57261;47.504;19.084;2022-11-27T06:41:03;51.92;;;30.08;;
69046;SDS011;57261;47.504;19.084;2022-11-27T06:44:06;51.13;;;30.73;;
69046;SDS011;57261;47.504;19.084;2022-11-27T06:47:06;51.40;;;30.92;;
69046;SDS011;57261;47.504;19.084;2022-11-27T06:50:07;54.55;;;32.05;;
69046;SDS011;57261;47.504;19.084;2022-11-27T06:53:07;53.13;;;31.23;;
69046;SDS011;57261;47.504;19.084;2022-11-27T06:56:09;52.50;;;30.30;;
69046;SDS011;57261;47.504;19.084;2022-11-27T06:59:11;54.42;;;32.08;;
69046;SDS011;57261;47.504;19.084;2022-11-27T07:02:13;51.10;;;31.20;;
69046;SDS011;57261;47.504;19.084;2022-11-27T07:05:14;55.73;;;31.20;;
69046;SDS011;57261;47.504;19.084;2022-11-27T07:08:14;55.50;;;31.03;;
69046;SDS011;57261;47.504;19.084;2022-11-27T07:11:16;59.03;;;31.47;;
69046;SDS011;57261;47.504;19.084;2022-11-27T07:14:19;55.83;;;31.20;;
69046;SDS011;57261;47.504;19.084;2022-11-27T07:17:20;57.23;;;31.60;;
69046;SDS011;57261;47.504;19.084;2022-11-27T07:20:20;54.80;;;30.97;;
69046;SDS011;57261;47.504;19.084;2022-11-27T07:23:21;54.85;;;31.60;;
69046;SDS011;57261;47.504;19.084;2022-11-27T07:26:23;54.85;;;31.83;;
69046;SDS011;57261;47.504;19.084;2022-11-27T07:29:25;57.47;;;31.38;;
69046;SDS011;57261;47.504;19.084;2022-11-27T07:32:26;53.27;;;30.13;;
69046;SDS011;57261;47.504;19.084;2022-11-27T07:35:26;51.63;;;31.27;;
69046;SDS011;57261;47.504;19.084;2022-11-27T07:38:27;55.30;;;31.03;;
69046;SDS011;57261;47.504;19.084;2022-11-27T07:41:27;56.65;;;30.38;;
69046;SDS011;57261;47.504;19.084;2022-11-27T07:44:28;51.33;;;29.23;;
69046;SDS011;57261;47.504;19.084;2022-11-27T07:47:29;54.83;;;30.55;;
69046;SDS011;57261;47.504;19.084;2022-11-27T07:50:30;49.67;;;29.97;;
69046;SDS011;57261;47.504;19.084;2022-11-27T07:53:30;54.30;;;31.13;;
69046;SDS011;57261;47.504;19.084;2022-11-27T07:56:31;50.97;;;29.48;;
69046;SDS011;57261;47.504;19.084;2022-11-27T07:59:32;50.80;;;29.13;;
69046;SDS011;57261;47.504;19.084;2022-11-27T08:02:35;53.20;;;28.43;;
69046;SDS011;57261;47.504;19.084;2022-11-27T08:05:36;48.92;;;28.60;;
69046;SDS011;57261;47.504;19.084;2022-11-27T08:08:37;49.60;;;27.88;;
69046;SDS011;57261;47.504;19.084;2022-11-27T08:11:52;51.70;;;29.37;;
69046;SDS011;57261;47.504;19.084;2022-11-27T08:14:52;48.23;;;28.67;;
69046;SDS011;57261;47.504;19.084;2022-11-27T08:17:53;49.47;;;28.10;;
69046;SDS011;57261;47.504;19.084;2022-11-27T08:20:53;53.50;;;29.17;;
69046;SDS011;57261;47.504;19.084;2022-11-27T08:23:56;51.28;;;28.58;;
69046;SDS011;57261;47.504;19.084;2022-11-27T08:26:57;49.77;;;27.90;;
69046;SDS011;57261;47.504;19.084;2022-11-27T08:29:58;50.30;;;28.00;;
69046;SDS011;57261;47.504;19.084;2022-11-27T08:32:59;45.38;;;26.45;;
69046;SDS011;57261;47.504;19.084;2022-11-27T08:36:00;49.72;;;27.98;;
69046;SDS011;57261;47.504;19.084;2022-11-27T08:39:00;48.00;;;27.50;;
69046;SDS011;57261;47.504;19.084;2022-11-27T08:42:01;48.83;;;26.73;;
69046;SDS011;57261;47.504;19.084;2022-11-27T08:45:01;47.97;;;26.02;;
69046;SDS011;57261;47.504;19.084;2022-11-27T08:48:02;46.53;;;26.43;;
69046;SDS011;57261;47.504;19.084;2022-11-27T08:51:06;49.47;;;26.10;;
69046;SDS011;57261;47.504;19.084;2022-11-27T08:54:08;47.83;;;25.67;;
69046;SDS011;57261;47.504;19.084;2022-11-27T08:57:08;47.13;;;25.13;;
69046;SDS011;57261;47.504;19.084;2022-11-27T09:00:09;47.20;;;25.13;;
69046;SDS011;57261;47.504;19.084;2022-11-27T09:03:10;46.57;;;24.27;;
69046;SDS011;57261;47.504;19.084;2022-11-27T09:06:13;50.17;;;25.73;;
69046;SDS011;57261;47.504;19.084;2022-11-27T09:09:15;51.03;;;25.55;;
69046;SDS011;57261;47.504;19.084;2022-11-27T09:12:16;45.77;;;23.97;;
69046;SDS011;57261;47.504;19.084;2022-11-27T09:15:16;51.33;;;25.33;;
69046;SDS011;57261;47.504;19.084;2022-11-27T09:18:17;49.25;;;24.92;;
69046;SDS011;57261;47.504;19.084;2022-11-27T09:21:19;51.27;;;25.50;;
69046;SDS011;57261;47.504;19.084;2022-11-27T09:24:20;49.33;;;24.73;;
69046;SDS011;57261;47.504;19.084;2022-11-27T09:27:21;51.30;;;26.07;;
69046;SDS011;57261;47.504;19.084;2022-11-27T09:30:21;50.33;;;24.13;;
69046;SDS011;57261;47.504;19.084;2022-11-27T09:33:22;50.13;;;24.20;;
69046;SDS011;57261;47.504;19.084;2022-11-27T09:36:24;48.90;;;23.73;;
69046;SDS011;57261;47.504;19.084;2022-11-27T09:39:27;50.13;;;24.73;;
69046;SDS011;57261;47.504;19.084;2022-11-27T09:42:34;49.20;;;24.60;;
69046;SDS011;57261;47.504;19.084;2022-11-27T09:45:45;50.85;;;25.08;;
69046;SDS011;57261;47.504;19.084;2022-11-27T09:48:50;49.55;;;24.42;;
69046;SDS011;57261;47.504;19.084;2022-11-27T09:51:53;48.97;;;24.10;;
69046;SDS011;57261;47.504;19.084;2022-11-27T09:55:02;51.10;;;24.40;;
69046;SDS011;57261;47.504;19.084;2022-11-27T09:58:33;53.47;;;24.83;;
69046;SDS011;57261;47.504;19.084;2022-11-27T10:04:57;51.40;;;24.17;;
69046;SDS011;57261;47.504;19.084;2022-11-27T10:11:32;54.95;;;23.83;;
69046;SDS011;57261;47.504;19.084;2022-11-27T10:21:08;50.83;;;22.85;;
69046;SDS011;57261;47.504;19.084;2022-11-27T10:34:49;56.00;;;23.48;;
69046;SDS011;57261;47.504;19.084;2022-11-27T10:37:52;50.60;;;21.70;;
69046;SDS011;57261;47.504;19.084;2022-11-27T10:41:13;51.22;;;22.35;;
69046;SDS011;57261;47.504;19.084;2022-11-27T10:44:30;54.35;;;22.92;;
69046;SDS011;57261;47.504;19.084;2022-11-27T10:51:20;53.33;;;21.67;;
69046;SDS011;57261;47.504;19.084;2022-11-27T10:54:27;56.30;;;23.80;;
69046;SDS011;57261;47.504;19.084;2022-11-27T11:01:06;54.53;;;22.97;;
69046;SDS011;57261;47.504;19.084;2022-11-27T11:04:12;54.08;;;22.75;;
69046;SDS011;57261;47.504;19.084;2022-11-27T11:07:20;51.13;;;22.98;;
69046;SDS011;57261;47.504;19.084;2022-11-27T11:10:31;58.67;;;24.10;;
69046;SDS011;57261;47.504;19.084;2022-11-27T11:13:44;57.50;;;22.58;;
69046;SDS011;57261;47.504;19.084;2022-11-27T11:16:45;55.50;;;22.75;;
69046;SDS011;57261;47.504;19.084;2022-11-27T11:19:46;52.88;;;22.77;;
69046;SDS011;57261;47.504;19.084;2022-11-27T11:22:46;56.75;;;22.83;;
69046;SDS011;57261;47.504;19.084;2022-11-27T11:25:48;57.00;;;24.10;;
69046;SDS011;57261;47.504;19.084;2022-11-27T11:28:54;54.67;;;23.02;;
69046;SDS011;57261;47.504;19.084;2022-11-27T11:32:01;65.82;;;24.02;;
69046;SDS011;57261;47.504;19.084;2022-11-27T11:35:32;79.73;;;24.30;;
69046;SDS011;57261;47.504;19.084;2022-11-27T11:38:34;68.55;;;24.33;;
69046;SDS011;57261;47.504;19.084;2022-11-27T11:41:36;59.13;;;23.27;;
69046;SDS011;57261;47.504;19.084;2022-11-27T11:44:38;59.30;;;22.70;;
69046;SDS011;57261;47.504;19.084;2022-11-27T11:51:15;65.10;;;25.30;;
69046;SDS011;57261;47.504;19.084;2022-11-27T11:58:11;61.53;;;22.97;;
69046;SDS011;57261;47.504;19.084;2022-11-27T12:11:07;58.63;;;22.40;;
69046;SDS011;57261;47.504;19.084;2022-11-27T12:14:18;62.63;;;23.98;;
69046;SDS011;57261;47.504;19.084;2022-11-27T12:21:14;55.97;;;22.45;;
69046;SDS011;57261;47.504;19.084;2022-11-27T12:31:27;54.05;;;22.77;;
69046;SDS011;57261;47.504;19.084;2022-11-27T12:34:38;53.90;;;21.58;;
69046;SDS011;57261;47.504;19.084;2022-11-27T12:41:27;50.85;;;21.60;;
69046;SDS011;57261;47.504;19.084;2022-11-27T12:47:52;47.83;;;20.77;;
69046;SDS011;57261;47.504;19.084;2022-11-27T12:51:06;50.33;;;20.30;;
69046;SDS011;57261;47.504;19.084;2022-11-27T12:54:13;51.38;;;21.58;;
69046;SDS011;57261;47.504;19.084;2022-11-27T13:00:39;47.67;;;20.07;;
69046;SDS011;57261;47.504;19.084;2022-11-27T13:03:45;49.28;;;20.27;;
69046;SDS011;57261;47.504;19.084;2022-11-27T13:07:07;47.05;;;20.00;;
69046;SDS011;57261;47.504;19.084;2022-11-27T13:10:21;50.17;;;20.90;;
69046;SDS011;57261;47.504;19.084;2022-11-27T13:13:27;45.88;;;21.00;;
69046;SDS011;57261;47.504;19.084;2022-11-27T13:16:39;44.72;;;19.20;;
69046;SDS011;57261;47.504;19.084;2022-11-27T13:19:48;43.67;;;19.23;;
69046;SDS011;57261;47.504;19.084;2022-11-27T13:22:50;42.33;;;19.00;;
69046;SDS011;57261;47.504;19.084;2022-11-27T13:25:52;43.33;;;19.42;;
69046;SDS011;57261;47.504;19.084;2022-11-27T13:28:56;43.85;;;19.33;;
69046;SDS011;57261;47.504;19.084;2022-11-27T13:31:59;43.90;;;19.10;;
69046;SDS011;57261;47.504;19.084;2022-11-27T13:35:03;45.75;;;19.55;;
69046;SDS011;57261;47.504;19.084;2022-11-27T13:38:22;47.17;;;19.15;;
69046;SDS011;57261;47.504;19.084;2022-11-27T13:41:30;42.73;;;18.60;;
69046;SDS011;57261;47.504;19.084;2022-11-27T13:44:40;45.78;;;20.10;;
69046;SDS011;57261;47.504;19.084;2022-11-27T13:47:43;42.95;;;19.60;;
69046;SDS011;57261;47.504;19.084;2022-11-27T13:50:44;40.87;;;18.60;;
69046;SDS011;57261;47.504;19.084;2022-11-27T13:53:45;39.70;;;18.80;;
69046;SDS011;57261;47.504;19.084;2022-11-27T13:56:47;41.08;;;19.38;;
69046;SDS011;57261;47.504;19.084;2022-11-27T13:59:54;39.57;;;18.20;;
69046;SDS011;57261;47.504;19.084;2022-11-27T14:03:04;38.77;;;18.47;;
69046;SDS011;57261;47.504;19.084;2022-11-27T14:06:16;40.45;;;18.70;;
69046;SDS011;57261;47.504;19.084;2022-11-27T14:09:20;40.55;;;18.77;;
69046;SDS011;57261;47.504;19.084;2022-11-27T14:12:32;40.58;;;18.30;;
69046;SDS011;57261;47.504;19.084;2022-11-27T14:15:34;39.40;;;18.67;;
69046;SDS011;57261;47.504;19.084;2022-11-27T14:18:36;41.65;;;18.40;;
69046;SDS011;57261;47.504;19.084;2022-11-27T14:21:39;39.30;;;17.93;;
69046;SDS011;57261;47.504;19.084;2022-11-27T14:24:42;38.85;;;17.63;;
69046;SDS011;57261;47.504;19.084;2022-11-27T14:27:44;38.85;;;17.42;;
69046;SDS011;57261;47.504;19.084;2022-11-27T14:30:48;35.80;;;17.17;;
69046;SDS011;57261;47.504;19.084;2022-11-27T14:33:50;40.80;;;18.52;;
69046;SDS011;57261;47.504;19.084;2022-11-27T14:36:51;37.83;;;18.13;;
69046;SDS011;57261;47.504;19.084;2022-11-27T14:39:52;37.97;;;17.17;;
69046;SDS011;57261;47.504;19.084;2022-11-27T14:43:05;38.78;;;18.20;;
69046;SDS011;57261;47.504;19.084;2022-11-27T14:46:07;36.97;;;17.23;;
69046;SDS011;57261;47.504;19.084;2022-11-27T14:49:18;35.50;;;16.33;;
69046;SDS011;57261;47.504;19.084;2022-11-27T14:52:19;38.45;;;16.83;;
69046;SDS011;57261;47.504;19.084;2022-11-27T14:55:21;37.53;;;17.77;;
69046;SDS011;57261;47.504;19.084;2022-11-27T14:58:24;36.67;;;16.83;;
69046;SDS011;57261;47.504;19.084;2022-11-27T15:01:27;36.17;;;17.35;;
69046;SDS011;57261;47.504;19.084;2022-11-27T15:04:33;37.47;;;17.13;;
69046;SDS011;57261;47.504;19.084;2022-11-27T15:07:35;33.67;;;16.20;;
69046;SDS011;57261;47.504;19.084;2022-11-27T15:10:39;36.87;;;16.90;;
69046;SDS011;57261;47.504;19.084;2022-11-27T15:13:40;35.00;;;16.65;;
69046;SDS011;57261;47.504;19.084;2022-11-27T15:16:44;31.80;;;15.77;;
69046;SDS011;57261;47.504;19.084;2022-11-27T15:19:48;33.80;;;16.05;;
69046;SDS011;57261;47.504;19.084;2022-11-27T15:22:49;33.53;;;16.20;;
69046;SDS011;57261;47.504;19.084;2022-11-27T15:29:21;35.17;;;15.80;;
69046;SDS011;57261;47.504;19.084;2022-11-27T15:32:46;33.90;;;15.53;;
69046;SDS011;57261;47.504;19.084;2022-11-27T15:35:52;35.50;;;15.25;;
69046;SDS011;57261;47.504;19.084;2022-11-27T15:39:02;32.50;;;16.27;;
69046;SDS011;57261;47.504;19.084;2022-11-27T15:42:07;31.63;;;16.05;;
69046;SDS011;57261;47.504;19.084;2022-11-27T15:45:08;32.17;;;14.70;;
69046;SDS011;57261;47.504;19.084;2022-11-27T15:48:16;31.83;;;15.20;;
69046;SDS011;57261;47.504;19.084;2022-11-27T15:51:18;29.83;;;14.20;;
69046;SDS011;57261;47.504;19.084;2022-11-27T15:54:18;32.85;;;15.35;;
69046;SDS011;57261;47.504;19.084;2022-11-27T15:57:19;30.00;;;14.43;;
69046;SDS011;57261;47.504;19.084;2022-11-27T16:00:19;28.97;;;14.17;;
69046;SDS011;57261;47.504;19.084;2022-11-27T16:03:21;29.33;;;13.68;;
69046;SDS011;57261;47.504;19.084;2022-11-27T16:06:21;30.97;;;14.87;;
69046;SDS011;57261;47.504;19.084;2022-11-27T16:09:24;31.13;;;14.43;;
69046;SDS011;57261;47.504;19.084;2022-11-27T16:12:25;30.40;;;14.30;;
69046;SDS011;57261;47.504;19.084;2022-11-27T16:15:25;29.73;;;14.77;;
69046;SDS011;57261;47.504;19.084;2022-11-27T16:18:28;29.27;;;14.40;;
69046;SDS011;57261;47.504;19.084;2022-11-27T16:21:29;27.80;;;12.93;;
69046;SDS011;57261;47.504;19.084;2022-11-27T16:24:29;29.60;;;14.35;;
69046;SDS011;57261;47.504;19.084;2022-11-27T16:27:30;29.30;;;13.77;;
69046;SDS011;57261;47.504;19.084;2022-11-27T16:30:31;28.03;;;13.30;;
69046;SDS011;57261;47.504;19.084;2022-11-27T16:33:32;28.67;;;13.00;;
69046;SDS011;57261;47.504;19.084;2022-11-27T16:36:32;26.37;;;12.57;;
69046;SDS011;57261;47.504;19.084;2022-11-27T16:39:33;30.93;;;14.00;;
69046;SDS011;57261;47.504;19.084;2022-11-27T16:42:36;30.88;;;14.00;;
69046;SDS011;57261;47.504;19.084;2022-11-27T16:45:37;29.17;;;13.73;;
69046;SDS011;57261;47.504;19.084;2022-11-27T16:48:38;26.38;;;13.40;;
69046;SDS011;57261;47.504;19.084;2022-11-27T16:51:41;27.00;;;12.73;;
69046;SDS011;57261;47.504;19.084;2022-11-27T16:54:44;29.33;;;13.90;;
69046;SDS011;57261;47.504;19.084;2022-11-27T16:57:44;28.63;;;13.50;;
69046;SDS011;57261;47.504;19.084;2022-11-27T17:00:46;30.20;;;13.07;;
69046;SDS011;57261;47.504;19.084;2022-11-27T17:03:46;29.00;;;14.57;;
69046;SDS011;57261;47.504;19.084;2022-11-27T17:06:48;28.42;;;14.15;;
69046;SDS011;57261;47.504;19.084;2022-11-27T17:09:49;29.33;;;13.83;;
69046;SDS011;57261;47.504;19.084;2022-11-27T17:12:49;28.50;;;13.77;;
69046;SDS011;57261;47.504;19.084;2022-11-27T17:15:50;31.42;;;14.23;;
69046;SDS011;57261;47.504;19.084;2022-11-27T17:18:50;31.10;;;14.40;;
69046;SDS011;57261;47.504;19.084;2022-11-27T17:21:50;30.80;;;14.27;;
69046;SDS011;57261;47.504;19.084;2022-11-27T17:24:51;29.37;;;13.27;;
69046;SDS011;57261;47.504;19.084;2022-11-27T17:27:54;30.05;;;13.50;;
69046;SDS011;57261;47.504;19.084;2022-11-27T17:30:54;31.17;;;13.93;;
69046;SDS011;57261;47.504;19.084;2022-11-27T17:33:55;30.73;;;13.93;;
69046;SDS011;57261;47.504;19.084;2022-11-27T17:36:55;32.50;;;14.38;;
69046;SDS011;57261;47.504;19.084;2022-11-27T17:39:57;27.75;;;12.52;;
69046;SDS011;57261;47.504;19.084;2022-11-27T17:42:58;29.05;;;13.00;;
69046;SDS011;57261;47.504;19.084;2022-11-27T17:45:58;26.50;;;12.07;;
69046;SDS011;57261;47.504;19.084;2022-11-27T17:48:59;28.03;;;12.90;;
69046;SDS011;57261;47.504;19.084;2022-11-27T17:52:01;27.42;;;12.93;;
69046;SDS011;57261;47.504;19.084;2022-11-27T17:55:02;26.47;;;12.30;;
69046;SDS011;57261;47.504;19.084;2022-11-27T17:58:03;27.15;;;11.98;;
69046;SDS011;57261;47.504;19.084;2022-11-27T18:01:04;26.48;;;12.57;;
69046;SDS011;57261;47.504;19.084;2022-11-27T18:04:07;28.13;;;12.68;;
69046;SDS011;57261;47.504;19.084;2022-11-27T18:07:09;24.20;;;11.07;;
69046;SDS011;57261;47.504;19.084;2022-11-27T18:10:10;24.75;;;11.57;;
69046;SDS011;57261;47.504;19.084;2022-11-27T18:13:11;26.00;;;11.50;;
69046;SDS011;57261;47.504;19.084;2022-11-27T18:16:16;25.37;;;11.53;;
69046;SDS011;57261;47.504;19.084;2022-11-27T18:19:19;26.23;;;11.63;;
69046;SDS011;57261;47.504;19.084;2022-11-27T18:22:20;25.10;;;11.73;;
69046;SDS011;57261;47.504;19.084;2022-11-27T18:25:20;27.03;;;12.17;;
69046;SDS011;57261;47.504;19.084;2022-11-27T18:28:20;29.83;;;12.07;;
69046;SDS011;57261;47.504;19.084;2022-11-27T18:31:22;26.15;;;11.45;;
69046;SDS011;57261;47.504;19.084;2022-11-27T18:34:23;25.27;;;11.40;;
69046;SDS011;57261;47.504;19.084;2022-11-27T18:37:23;26.07;;;11.63;;
69046;SDS011;57261;47.504;19.084;2022-11-27T18:40:24;21.33;;;10.35;;
69046;SDS011;57261;47.504;19.084;2022-11-27T18:43:24;23.87;;;11.13;;
69046;SDS011;57261;47.504;19.084;2022-11-27T18:46:24;24.40;;;11.07;;
69046;SDS011;57261;47.504;19.084;2022-11-27T18:49:25;27.67;;;11.97;;
69046;SDS011;57261;47.504;19.084;2022-11-27T18:52:26;25.58;;;11.40;;
69046;SDS011;57261;47.504;19.084;2022-11-27T18:55:31;23.57;;;10.87;;
69046;SDS011;57261;47.504;19.084;2022-11-27T18:58:33;26.08;;;11.48;;
69046;SDS011;57261;47.504;19.084;2022-11-27T19:01:35;22.23;;;10.85;;
69046;SDS011;57261;47.504;19.084;2022-11-27T19:04:36;27.80;;;12.87;;
69046;SDS011;57261;47.504;19.084;2022-11-27T19:07:36;23.05;;;11.77;;
69046;SDS011;57261;47.504;19.084;2022-11-27T19:10:37;28.57;;;12.87;;
69046;SDS011;57261;47.504;19.084;2022-11-27T19:13:38;24.40;;;11.40;;
69046;SDS011;57261;47.504;19.084;2022-11-27T19:16:39;27.75;;;12.32;;
69046;SDS011;57261;47.504;19.084;2022-11-27T19:19:44;25.50;;;11.93;;
69046;SDS011;57261;47.504;19.084;2022-11-27T19:22:45;29.80;;;12.88;;